Sterling, MI (48659)

1:55 PM EDT on August 24, 2016 (GMT -0400)
Cole Canoe Base | | Change Station

Elev 807 ft 44.18 °N, 84.07 °W | Updated 5 seconds ago

Overcast
Overcast
73.0 °F
Feels Like 73.0 °F
N
2.2
Wind Variable Wind from West

Today
High -- | Low -- °F
--% Chance of Precip.
Yesterday
High -- | Low -- °F
Precip. -- in
Pressure 29.98 in
Visibility 10.0 miles
Clouds Mostly Cloudy 2500 ft
Overcast 3300 ft
Dew Point 71 °F
Humidity 94%
Rainfall 0.11 in
Snow Depth Not available.
6:50 AM 8:25 PM
Waning Gibbous, 55% visible
METAR KIKW 241734Z AUTO 19006KT 10SM BKN025 OVC033 23/22 A2998 RMK AO2 P0001 T02330217
Pressure 29.98 in
Visibility 10.0 miles
Clouds Mostly Cloudy 2500 ft
Overcast 3300 ft
Dew Point 71 °F
Humidity 94%
Rainfall 0.11 in
Snow Depth Not available.
6:50 AM 8:25 PM
Waning Gibbous, 55% visible
METAR KIKW 241734Z AUTO 19006KT 10SM BKN025 OVC033 23/22 A2998 RMK AO2 P0001 T02330217

10-Day Weather Forecast

Almanac

Astronomy

Aug. 24, 2016 Rise Set
Actual Time
Civil Twilight
Nautical Twilight
Astronomical Twilight
Moon
Length of Visible Light
Length of Day
Tomorrow will be .
, % of the Moon is Illuminated

Today's Extremes

State Highs State Lows

Community

WunderPhotos

Upload Photos

1,934,661 photos uploaded!

WunderBlog® & News

Nearby

Air Quality

  Air Quality AQ Index Pollutant
Not available.

Snow Depth

Station Depth Elevation

Earthquake Activity

City Distance Mag. Time & Date
Minimum magnitude displayed is 2.5.

Coastal Water Temperatures

Place Temperature

Stations

Nearby Weather Stations

Station Location Temp. Windchill Dew Point Humidity Wind Precip. Elev Updated Type
                   

Watches & Warnings

There are currently no watches in effect.